createdAt,value
2023-04-30T00:00:08.762Z,3.55
2023-04-30T00:00:40.113Z,3.78
2023-04-30T00:01:11.511Z,3.88
2023-04-30T00:01:42.901Z,3.05
2023-04-30T00:02:14.342Z,3.75
2023-04-30T00:02:45.807Z,2.97
2023-04-30T00:03:17.531Z,3.60
2023-04-30T00:03:48.977Z,3.83
2023-04-30T00:04:20.505Z,4.15
2023-04-30T00:04:51.955Z,3.60
2023-04-30T00:05:23.297Z,3.65
2023-04-30T00:05:54.779Z,3.83
2023-04-30T00:06:28.239Z,3.63
2023-04-30T00:06:59.924Z,4.13
2023-04-30T00:07:31.294Z,3.88
2023-04-30T00:08:02.702Z,4.63
2023-04-30T00:08:34.074Z,4.03
2023-04-30T00:09:05.416Z,3.83
2023-04-30T00:09:36.837Z,4.45
2023-04-30T00:10:09.446Z,4.53
2023-04-30T00:10:40.816Z,3.58
2023-04-30T00:11:12.151Z,3.63
2023-04-30T00:11:43.499Z,4.15
2023-04-30T00:12:14.864Z,3.65
2023-04-30T00:12:46.222Z,4.32
2023-04-30T00:13:17.566Z,4.32
2023-04-30T00:13:48.972Z,4.63
2023-04-30T00:14:20.311Z,3.90
2023-04-30T00:14:51.680Z,3.85
2023-04-30T00:15:23.049Z,3.28
2023-04-30T00:15:54.411Z,4.13
2023-04-30T00:16:25.840Z,4.20
2023-04-30T00:16:57.303Z,3.88
2023-04-30T00:17:28.706Z,3.70
2023-04-30T00:18:00.145Z,4.18
2023-04-30T00:18:31.528Z,4.43
2023-04-30T00:19:02.896Z,4.50
2023-04-30T00:19:34.237Z,3.75
2023-04-30T00:20:06.008Z,4.07
2023-04-30T00:20:37.324Z,4.35
2023-04-30T00:21:08.667Z,4.50
2023-04-30T00:21:39.982Z,4.13
2023-04-30T00:22:11.332Z,4.40
2023-04-30T00:22:42.693Z,4.57
2023-04-30T00:23:14.038Z,3.95
2023-04-30T00:23:45.388Z,4.00
2023-04-30T00:24:16.746Z,4.45
2023-04-30T00:24:48.105Z,4.72
2023-04-30T00:25:19.502Z,4.43
2023-04-30T00:25:50.889Z,4.82
2023-04-30T00:26:22.264Z,4.65
2023-04-30T00:26:53.642Z,4.35
2023-04-30T00:27:24.975Z,4.45
2023-04-30T00:27:56.340Z,3.92
2023-04-30T00:28:27.738Z,4.50
2023-04-30T00:28:59.084Z,4.28
2023-04-30T00:29:30.409Z,4.80
2023-04-30T00:30:01.826Z,4.57
2023-04-30T00:30:33.218Z,4.85
2023-04-30T00:31:04.609Z,5.65
2023-04-30T00:31:36.009Z,4.90
2023-04-30T00:32:07.434Z,4.00
2023-04-30T00:32:38.837Z,4.10
2023-04-30T00:33:10.249Z,4.80
2023-04-30T00:33:41.648Z,4.63
2023-04-30T00:34:12.980Z,4.40
2023-04-30T00:34:44.361Z,4.88
2023-04-30T00:35:15.800Z,5.18
2023-04-30T00:35:47.258Z,4.28
2023-04-30T00:36:18.621Z,4.40
2023-04-30T00:36:49.961Z,5.07
2023-04-30T00:37:21.329Z,4.57
2023-04-30T00:37:52.688Z,4.38
2023-04-30T00:38:24.018Z,4.53
2023-04-30T00:38:55.404Z,5.28
2023-04-30T00:39:26.757Z,3.95
2023-04-30T00:39:58.120Z,4.45
2023-04-30T00:40:29.636Z,3.93
2023-04-30T00:41:01.479Z,4.85
2023-04-30T00:41:34.984Z,4.90
2023-04-30T00:42:06.321Z,4.40
2023-04-30T00:42:37.680Z,4.60
2023-04-30T00:43:09.117Z,4.55
2023-04-30T00:43:40.487Z,4.60
2023-04-30T00:44:11.850Z,5.20
2023-04-30T00:44:43.221Z,5.20
2023-04-30T00:45:14.587Z,4.15
2023-04-30T00:45:45.930Z,5.15
2023-04-30T00:46:17.429Z,5.03
2023-04-30T00:46:48.820Z,5.18
2023-04-30T00:47:20.243Z,5.43
2023-04-30T00:47:51.693Z,4.82
2023-04-30T00:48:23.136Z,4.70
2023-04-30T00:48:54.577Z,4.57
2023-04-30T00:49:25.987Z,4.80
2023-04-30T00:49:57.611Z,5.32
2023-04-30T00:50:29.256Z,4.45
2023-04-30T00:51:02.822Z,4.80
2023-04-30T00:51:34.960Z,4.95
2023-04-30T00:52:06.503Z,5.18
2023-04-30T00:52:37.895Z,4.95
2023-04-30T00:53:09.395Z,4.43
2023-04-30T00:53:40.725Z,4.90
2023-04-30T00:54:12.584Z,4.72
2023-04-30T00:54:43.992Z,5.13
2023-04-30T00:55:15.721Z,5.78
2023-04-30T00:55:48.352Z,5.57
2023-04-30T00:56:19.712Z,5.50
2023-04-30T00:56:51.124Z,4.72
2023-04-30T00:57:22.593Z,5.20
2023-04-30T00:57:54.256Z,4.88
2023-04-30T00:58:25.761Z,5.60
2023-04-30T00:58:57.246Z,5.30
2023-04-30T00:59:29.100Z,5.13
2023-04-30T01:00:00.451Z,5.20
2023-04-30T01:00:31.837Z,5.80
2023-04-30T01:01:03.733Z,5.13
2023-04-30T01:01:35.261Z,5.10
2023-04-30T01:02:06.724Z,6.78
2023-04-30T01:02:38.330Z,5.73
2023-04-30T01:03:10.147Z,5.22
2023-04-30T01:03:42.409Z,6.40
2023-04-30T01:04:14.302Z,5.10
2023-04-30T01:04:46.419Z,5.50
2023-04-30T01:05:17.775Z,5.45
2023-04-30T01:05:49.110Z,4.70
2023-04-30T01:06:20.526Z,5.75
2023-04-30T01:06:52.022Z,4.95
2023-04-30T01:07:26.448Z,5.15
2023-04-30T01:07:57.838Z,5.25
2023-04-30T01:08:30.711Z,5.28
2023-04-30T01:09:02.071Z,5.63
2023-04-30T01:09:33.506Z,5.43
2023-04-30T01:10:05.396Z,5.45
2023-04-30T01:10:42.452Z,5.68
2023-04-30T01:11:24.283Z,5.57
2023-04-30T01:11:55.623Z,5.28
2023-04-30T01:12:45.588Z,5.57
2023-04-30T01:13:27.101Z,5.65
2023-04-30T01:14:01.242Z,5.05
2023-04-30T01:14:51.493Z,5.90
2023-04-30T01:15:27.535Z,4.82
2023-04-30T01:15:58.928Z,5.60
2023-04-30T01:16:33.274Z,5.85
2023-04-30T01:17:23.432Z,5.78
2023-04-30T01:17:56.604Z,5.75
2023-04-30T01:18:39.510Z,5.10
2023-04-30T01:19:20.396Z,5.88
2023-04-30T01:19:52.102Z,5.20
2023-04-30T01:20:24.387Z,5.55
2023-04-30T01:21:01.265Z,5.93
2023-04-30T01:21:32.631Z,5.93
2023-04-30T01:22:04.687Z,6.22
2023-04-30T01:22:42.505Z,5.75
2023-04-30T01:23:20.728Z,6.18
2023-04-30T01:24:06.499Z,6.13
2023-04-30T01:24:37.836Z,5.88
2023-04-30T01:25:29.411Z,6.10
2023-04-30T01:26:06.623Z,5.65
2023-04-30T01:26:56.809Z,5.25
2023-04-30T01:27:46.698Z,5.95
2023-04-30T01:28:18.536Z,5.63
2023-04-30T01:28:50.393Z,5.78
2023-04-30T01:29:22.058Z,6.40
2023-04-30T01:29:54.724Z,6.18
2023-04-30T01:30:26.804Z,5.50
2023-04-30T01:30:58.527Z,5.18
2023-04-30T01:31:29.985Z,6.43
2023-04-30T01:32:01.812Z,6.43
2023-04-30T01:32:33.188Z,6.10
2023-04-30T01:33:04.630Z,6.10
2023-04-30T01:33:36.064Z,6.05
2023-04-30T01:34:07.414Z,7.07
2023-04-30T01:34:38.767Z,6.27
2023-04-30T01:35:10.171Z,6.65
2023-04-30T01:35:52.158Z,5.70
2023-04-30T01:36:33.158Z,6.53
2023-04-30T01:37:24.595Z,6.43
2023-04-30T01:38:02.201Z,6.30
2023-04-30T01:38:43.784Z,5.55
2023-04-30T01:39:33.841Z,5.93
2023-04-30T01:40:25.442Z,6.82
2023-04-30T01:41:04.694Z,6.32
2023-04-30T01:41:36.027Z,6.50
2023-04-30T01:42:16.390Z,6.32
2023-04-30T01:42:50.499Z,6.22
2023-04-30T01:43:55.501Z,5.43
2023-04-30T01:44:53.353Z,6.25
2023-04-30T01:45:36.732Z,6.20
2023-04-30T01:46:28.421Z,5.95
2023-04-30T01:47:20.085Z,6.03
2023-04-30T01:48:05.901Z,5.60
2023-04-30T01:48:40.137Z,6.13
2023-04-30T01:49:30.420Z,5.38
2023-04-30T01:50:04.849Z,5.72
2023-04-30T01:50:36.200Z,5.32
2023-04-30T01:51:20.477Z,4.88
2023-04-30T01:51:53.178Z,5.32
2023-04-30T01:52:30.270Z,6.15
2023-04-30T01:53:02.629Z,5.10
2023-04-30T01:53:40.131Z,5.20
2023-04-30T01:54:30.558Z,4.78
2023-04-30T01:55:07.844Z,5.85
2023-04-30T01:55:50.834Z,4.55
2023-04-30T01:56:27.258Z,4.50
2023-04-30T01:57:11.588Z,4.40
2023-04-30T01:58:03.569Z,4.18
2023-04-30T01:58:35.432Z,4.68
2023-04-30T01:59:06.801Z,4.13
2023-04-30T01:59:39.125Z,4.13
2023-04-30T02:00:10.680Z,3.80
2023-04-30T02:00:42.014Z,3.83
2023-04-30T02:01:29.735Z,3.97
2023-04-30T02:02:01.345Z,4.30
2023-04-30T02:02:32.796Z,4.40
2023-04-30T02:03:04.357Z,4.55
2023-04-30T02:03:35.802Z,4.28
2023-04-30T02:04:07.262Z,3.78
2023-04-30T02:04:38.717Z,3.65
2023-04-30T02:05:10.096Z,4.75
2023-04-30T02:05:41.490Z,4.10
2023-04-30T02:06:12.896Z,4.65
2023-04-30T02:06:44.325Z,4.50
2023-04-30T02:07:20.791Z,4.32
2023-04-30T02:07:52.457Z,4.43
2023-04-30T02:08:23.792Z,4.40
2023-04-30T02:08:55.213Z,4.90
2023-04-30T02:09:26.546Z,4.72
2023-04-30T02:09:58.001Z,5.28
2023-04-30T02:10:29.342Z,4.72
2023-04-30T02:11:00.702Z,4.43
2023-04-30T02:11:32.203Z,5.60
2023-04-30T02:12:03.629Z,4.75
2023-04-30T02:12:35.092Z,4.93
2023-04-30T02:13:06.426Z,4.47
2023-04-30T02:13:37.797Z,5.28
2023-04-30T02:14:09.117Z,5.25
2023-04-30T02:14:40.448Z,5.68
2023-04-30T02:15:12.070Z,6.40
2023-04-30T02:15:43.428Z,5.38
2023-04-30T02:16:14.857Z,4.82
2023-04-30T02:16:46.184Z,5.00
2023-04-30T02:17:17.542Z,5.20
2023-04-30T02:17:48.978Z,5.00
2023-04-30T02:18:20.429Z,5.15
2023-04-30T02:18:51.948Z,6.25
2023-04-30T02:19:23.311Z,4.88
2023-04-30T02:19:54.930Z,5.00
2023-04-30T02:20:26.464Z,5.53
2023-04-30T02:20:57.830Z,5.32
2023-04-30T02:21:29.204Z,5.22
2023-04-30T02:22:00.578Z,5.60
2023-04-30T02:22:31.954Z,6.80
2023-04-30T02:23:03.317Z,5.53
2023-04-30T02:23:34.658Z,5.07
2023-04-30T02:24:06.178Z,5.60
2023-04-30T02:24:37.578Z,5.80
2023-04-30T02:25:09.223Z,5.33
2023-04-30T02:25:41.206Z,5.95
2023-04-30T02:26:12.625Z,5.78
2023-04-30T02:26:43.945Z,6.30
2023-04-30T02:27:15.429Z,6.95
2023-04-30T02:27:46.781Z,6.03
2023-04-30T02:28:18.132Z,5.65
2023-04-30T02:28:49.466Z,5.57
2023-04-30T02:29:20.809Z,5.15
2023-04-30T02:29:52.947Z,6.00
2023-04-30T02:30:24.394Z,6.53
2023-04-30T02:30:55.764Z,5.20
2023-04-30T02:31:27.213Z,5.93
2023-04-30T02:31:59.163Z,5.32
2023-04-30T02:32:30.623Z,5.13
2023-04-30T02:33:02.053Z,5.50
2023-04-30T02:33:33.433Z,4.78
2023-04-30T02:34:04.787Z,5.05
2023-04-30T02:34:36.159Z,5.18
2023-04-30T02:35:07.653Z,5.75
2023-04-30T02:35:40.444Z,4.80
2023-04-30T02:36:11.840Z,5.18
2023-04-30T02:36:43.171Z,5.63
2023-04-30T02:37:14.613Z,5.65
2023-04-30T02:37:46.003Z,5.97
2023-04-30T02:38:17.349Z,5.63
2023-04-30T02:38:48.734Z,5.40
2023-04-30T02:39:20.080Z,5.30
2023-04-30T02:39:51.793Z,6.28
2023-04-30T02:40:23.356Z,5.63
2023-04-30T02:40:54.739Z,5.60
2023-04-30T02:41:26.155Z,6.03
2023-04-30T02:41:57.483Z,5.43
2023-04-30T02:42:28.831Z,5.72
2023-04-30T02:43:00.160Z,5.83
2023-04-30T02:43:31.520Z,5.78
2023-04-30T02:44:02.962Z,5.15
2023-04-30T02:44:34.645Z,5.25
2023-04-30T02:45:06.362Z,5.13
2023-04-30T02:45:37.730Z,6.07
2023-04-30T02:46:09.094Z,5.35
2023-04-30T02:46:40.779Z,6.07
2023-04-30T02:47:12.123Z,5.07
2023-04-30T02:47:43.485Z,6.40
2023-04-30T02:48:15.224Z,5.45
2023-04-30T02:48:46.565Z,5.77
2023-04-30T02:49:18.026Z,5.47
2023-04-30T02:49:49.399Z,5.85
2023-04-30T02:50:20.744Z,5.53
2023-04-30T02:50:52.091Z,5.30
2023-04-30T02:51:23.411Z,5.63
2023-04-30T02:51:54.774Z,5.95
2023-04-30T02:52:26.142Z,6.45
2023-04-30T02:52:57.474Z,6.05
2023-04-30T02:53:28.823Z,5.78
2023-04-30T02:54:00.165Z,5.35
2023-04-30T02:54:31.494Z,6.28
2023-04-30T02:55:02.837Z,5.22
2023-04-30T02:55:34.172Z,5.95
2023-04-30T02:56:05.763Z,5.87
2023-04-30T02:56:37.145Z,6.45
2023-04-30T02:57:08.506Z,6.10
2023-04-30T02:57:39.886Z,6.00
2023-04-30T02:58:11.238Z,5.60
2023-04-30T02:58:42.599Z,5.87
2023-04-30T02:59:14.116Z,5.10
2023-04-30T02:59:45.448Z,5.53
2023-04-30T03:00:16.814Z,5.70
2023-04-30T03:00:48.153Z,5.18
2023-04-30T03:01:19.590Z,6.55
2023-04-30T03:01:51.115Z,5.70
2023-04-30T03:02:22.570Z,6.80
2023-04-30T03:02:54.032Z,5.90
2023-04-30T03:03:25.457Z,6.00
2023-04-30T03:03:56.882Z,5.50
2023-04-30T03:04:28.220Z,6.00
2023-04-30T03:04:59.562Z,5.90
2023-04-30T03:05:30.936Z,5.47
2023-04-30T03:06:02.317Z,5.45
2023-04-30T03:06:33.783Z,5.35
2023-04-30T03:07:05.117Z,5.60
2023-04-30T03:07:36.499Z,5.75
2023-04-30T03:08:07.841Z,6.43
2023-04-30T03:08:39.198Z,5.68
2023-04-30T03:09:10.561Z,5.72
2023-04-30T03:09:43.593Z,5.65
2023-04-30T03:10:14.945Z,5.45
2023-04-30T03:10:46.283Z,5.47
2023-04-30T03:11:17.638Z,5.50
2023-04-30T03:11:48.963Z,5.47
2023-04-30T03:12:20.286Z,5.35
2023-04-30T03:12:51.636Z,6.18
2023-04-30T03:13:23.028Z,5.10
2023-04-30T03:13:54.396Z,5.47
2023-04-30T03:14:25.746Z,5.53
2023-04-30T03:14:57.079Z,6.07
2023-04-30T03:15:28.400Z,5.77
2023-04-30T03:16:00.482Z,5.03
2023-04-30T03:16:31.987Z,5.55
2023-04-30T03:17:03.409Z,6.28
2023-04-30T03:17:34.854Z,6.32
2023-04-30T03:18:06.731Z,5.78
2023-04-30T03:18:38.091Z,5.53
2023-04-30T03:19:09.443Z,5.18
2023-04-30T03:19:40.807Z,5.60
2023-04-30T03:20:12.244Z,5.72
2023-04-30T03:20:43.564Z,6.00
2023-04-30T03:21:14.895Z,6.53
2023-04-30T03:21:46.223Z,6.05
2023-04-30T03:22:17.576Z,5.47
2023-04-30T03:22:48.925Z,5.90
2023-04-30T03:23:20.312Z,6.63
2023-04-30T03:23:51.666Z,5.32
2023-04-30T03:24:23.021Z,5.50
2023-04-30T03:24:54.396Z,5.97
2023-04-30T03:25:25.718Z,6.75
2023-04-30T03:25:57.069Z,5.25
2023-04-30T03:26:28.435Z,6.45
2023-04-30T03:26:59.779Z,6.50
2023-04-30T03:27:31.135Z,6.47
2023-04-30T03:28:02.497Z,5.45
2023-04-30T03:28:34.075Z,5.93
2023-04-30T03:29:05.432Z,5.50
2023-04-30T03:29:36.763Z,6.70
2023-04-30T03:30:08.273Z,6.18
2023-04-30T03:30:39.740Z,5.83
2023-04-30T03:31:11.136Z,6.97
2023-04-30T03:31:42.618Z,6.13
2023-04-30T03:32:14.021Z,5.90
2023-04-30T03:32:45.431Z,6.30
2023-04-30T03:33:16.826Z,5.70
2023-04-30T03:33:48.297Z,6.30
2023-04-30T03:34:19.720Z,6.55
2023-04-30T03:34:51.054Z,5.80
2023-04-30T03:35:22.411Z,5.53
2023-04-30T03:35:53.745Z,5.50
2023-04-30T03:36:25.123Z,5.28
2023-04-30T03:36:56.461Z,5.95
2023-04-30T03:37:27.803Z,5.78
2023-04-30T03:37:59.438Z,5.70
2023-04-30T03:38:30.764Z,5.70
2023-04-30T03:39:02.250Z,6.13
2023-04-30T03:39:33.596Z,5.72
2023-04-30T03:40:05.209Z,5.90
2023-04-30T03:40:36.554Z,5.40
2023-04-30T03:41:07.908Z,5.30
2023-04-30T03:41:39.256Z,6.35
2023-04-30T03:42:10.653Z,6.70
2023-04-30T03:42:42.020Z,5.63
2023-04-30T03:43:13.422Z,5.03
2023-04-30T03:43:44.768Z,5.50
2023-04-30T03:44:16.247Z,5.40
2023-04-30T03:44:47.669Z,5.95
2023-04-30T03:45:19.217Z,5.43
2023-04-30T03:45:50.606Z,5.60
2023-04-30T03:46:22.201Z,5.78
2023-04-30T03:46:53.650Z,5.90
2023-04-30T03:47:25.034Z,6.07
2023-04-30T03:47:56.410Z,4.90
2023-04-30T03:48:27.826Z,5.72
2023-04-30T03:48:59.171Z,5.00
2023-04-30T03:49:30.707Z,4.75
2023-04-30T03:50:02.578Z,6.38
2023-04-30T03:50:33.988Z,6.40
2023-04-30T03:51:05.400Z,4.82
2023-04-30T03:51:37.092Z,5.53
2023-04-30T03:52:08.416Z,4.82
2023-04-30T03:52:39.749Z,5.40
2023-04-30T03:53:11.065Z,5.25
2023-04-30T03:53:42.412Z,5.07
2023-04-30T03:54:13.766Z,5.53
2023-04-30T03:54:45.097Z,5.72
2023-04-30T03:55:16.407Z,5.80
2023-04-30T03:55:49.101Z,4.53
2023-04-30T03:56:20.505Z,5.18
2023-04-30T03:56:51.895Z,5.07
2023-04-30T03:57:23.227Z,4.32
2023-04-30T03:57:54.639Z,4.53
2023-04-30T03:58:26.018Z,4.88
2023-04-30T03:58:57.367Z,4.93
2023-04-30T03:59:28.731Z,5.28
2023-04-30T04:00:00.158Z,5.20
2023-04-30T04:00:31.582Z,5.25
2023-04-30T04:01:03.715Z,4.80
2023-04-30T04:01:35.126Z,5.07
2023-04-30T04:02:06.512Z,4.55
2023-04-30T04:02:38.049Z,5.43
2023-04-30T04:03:09.478Z,4.95
2023-04-30T04:03:40.973Z,4.28
2023-04-30T04:04:12.444Z,4.70
2023-04-30T04:04:43.924Z,5.40
2023-04-30T04:05:15.364Z,5.25
2023-04-30T04:05:46.705Z,4.97
2023-04-30T04:06:18.096Z,4.77
2023-04-30T04:06:49.436Z,5.20
2023-04-30T04:07:20.779Z,5.05
2023-04-30T04:07:52.119Z,4.97
2023-04-30T04:08:23.452Z,4.55
2023-04-30T04:08:54.819Z,4.40
2023-04-30T04:09:26.163Z,3.90
2023-04-30T04:09:57.523Z,3.70
2023-04-30T04:10:28.993Z,4.65
2023-04-30T04:11:00.349Z,4.70
2023-04-30T04:11:31.688Z,5.30
2023-04-30T04:12:03.040Z,5.35
2023-04-30T04:12:34.378Z,5.05
2023-04-30T04:13:06.068Z,4.90
2023-04-30T04:13:37.440Z,5.00
2023-04-30T04:14:08.806Z,4.47
2023-04-30T04:14:40.172Z,4.57
2023-04-30T04:15:11.526Z,4.63
2023-04-30T04:15:42.898Z,4.80
2023-04-30T04:16:14.334Z,4.50
2023-04-30T04:16:45.678Z,5.15
2023-04-30T04:17:17.030Z,4.70
2023-04-30T04:17:48.420Z,4.60
2023-04-30T04:18:19.788Z,4.90
2023-04-30T04:18:51.135Z,4.73
2023-04-30T04:19:22.498Z,5.22
2023-04-30T04:19:54.042Z,5.63
2023-04-30T04:20:25.675Z,4.95
2023-04-30T04:20:57.034Z,4.00
2023-04-30T04:21:28.381Z,4.80
2023-04-30T04:21:59.760Z,4.53
2023-04-30T04:22:31.082Z,4.28
2023-04-30T04:23:02.428Z,4.72
2023-04-30T04:23:33.824Z,4.45
2023-04-30T04:24:05.315Z,4.88
2023-04-30T04:24:36.696Z,5.07
2023-04-30T04:25:08.209Z,4.28
2023-04-30T04:25:39.552Z,4.35
2023-04-30T04:26:10.910Z,5.25
2023-04-30T04:26:42.377Z,5.20
2023-04-30T04:27:13.736Z,4.40
2023-04-30T04:27:45.085Z,5.78
2023-04-30T04:28:16.458Z,4.90
2023-04-30T04:28:47.820Z,4.40
2023-04-30T04:29:19.295Z,4.30
2023-04-30T04:29:50.650Z,5.40
2023-04-30T04:30:22.002Z,5.18
2023-04-30T04:30:53.338Z,4.65
2023-04-30T04:31:24.750Z,4.68
2023-04-30T04:31:56.083Z,4.63
2023-04-30T04:32:27.542Z,4.53
2023-04-30T04:32:58.944Z,4.10
2023-04-30T04:33:30.421Z,4.43
2023-04-30T04:34:02.990Z,5.13
2023-04-30T04:34:34.385Z,4.65
2023-04-30T04:35:05.874Z,5.15
2023-04-30T04:35:37.208Z,5.47
2023-04-30T04:36:08.548Z,6.07
2023-04-30T04:36:39.889Z,4.50
2023-04-30T04:37:11.252Z,4.47
2023-04-30T04:37:42.601Z,4.07
2023-04-30T04:38:13.973Z,4.82
2023-04-30T04:38:45.306Z,4.80
2023-04-30T04:39:16.658Z,4.82
2023-04-30T04:39:48.118Z,4.35
2023-04-30T04:40:19.476Z,5.13
2023-04-30T04:40:51.356Z,4.03
2023-04-30T04:41:22.680Z,4.50
2023-04-30T04:41:54.040Z,4.53
2023-04-30T04:42:25.495Z,4.97
2023-04-30T04:42:56.814Z,5.88
2023-04-30T04:43:28.138Z,4.90
2023-04-30T04:43:59.842Z,4.50
2023-04-30T04:44:31.159Z,3.83
2023-04-30T04:45:02.539Z,4.03
2023-04-30T04:45:33.960Z,4.50
2023-04-30T04:46:05.435Z,4.80
2023-04-30T04:46:36.944Z,4.20
2023-04-30T04:47:08.434Z,3.78
2023-04-30T04:47:39.799Z,4.63
2023-04-30T04:48:11.207Z,4.90
2023-04-30T04:48:42.844Z,5.25
2023-04-30T04:49:14.204Z,4.80
2023-04-30T04:49:45.522Z,4.97
2023-04-30T04:50:16.915Z,4.82
2023-04-30T04:50:48.259Z,4.55
2023-04-30T04:51:19.828Z,3.70
2023-04-30T04:51:51.155Z,4.43
2023-04-30T04:52:22.710Z,3.92
2023-04-30T04:52:54.051Z,4.63
2023-04-30T04:53:25.392Z,4.72
2023-04-30T04:53:56.751Z,4.35
2023-04-30T04:54:28.257Z,4.45
2023-04-30T04:54:59.645Z,4.57
2023-04-30T04:55:30.970Z,4.35
2023-04-30T04:56:02.326Z,4.93
2023-04-30T04:56:33.672Z,3.83
2023-04-30T04:57:05.005Z,4.25
2023-04-30T04:57:36.349Z,4.93
2023-04-30T04:58:07.700Z,3.78
2023-04-30T04:58:39.047Z,4.05
2023-04-30T04:59:10.410Z,4.22
2023-04-30T04:59:41.759Z,3.70
2023-04-30T05:00:13.169Z,4.38
2023-04-30T05:00:44.765Z,4.03
2023-04-30T05:01:16.166Z,4.35
2023-04-30T05:01:47.614Z,4.07
2023-04-30T05:02:19.026Z,3.60
2023-04-30T05:02:50.702Z,3.13
2023-04-30T05:03:22.240Z,3.88
2023-04-30T05:03:53.900Z,2.95
2023-04-30T05:04:25.363Z,2.92
2023-04-30T05:04:56.714Z,2.55
2023-04-30T05:05:28.047Z,3.30
2023-04-30T05:05:59.379Z,3.47
2023-04-30T05:06:30.802Z,3.92
2023-04-30T05:07:02.365Z,3.20
2023-04-30T05:07:33.702Z,3.50
2023-04-30T05:08:05.199Z,3.35
2023-04-30T05:08:36.563Z,2.90
2023-04-30T05:09:08.011Z,2.78
2023-04-30T05:09:39.362Z,2.67
2023-04-30T05:10:10.751Z,3.78
2023-04-30T05:10:42.100Z,2.83
2023-04-30T05:11:15.550Z,3.28
2023-04-30T05:11:47.211Z,3.42
2023-04-30T05:12:18.536Z,2.80
2023-04-30T05:12:49.876Z,2.40
2023-04-30T05:13:21.289Z,2.92
2023-04-30T05:13:52.654Z,2.90
2023-04-30T05:14:24.030Z,3.70
2023-04-30T05:14:55.376Z,2.80
2023-04-30T05:15:26.728Z,2.45
2023-04-30T05:15:58.126Z,1.95
2023-04-30T05:16:29.640Z,3.10
2023-04-30T05:17:00.983Z,2.63
2023-04-30T05:17:32.351Z,2.10
2023-04-30T05:18:03.765Z,2.50
2023-04-30T05:18:35.210Z,2.40
2023-04-30T05:19:06.628Z,2.58
2023-04-30T05:19:37.992Z,2.30
2023-04-30T05:20:09.688Z,2.47
2023-04-30T05:20:41.049Z,2.63
2023-04-30T05:21:12.385Z,1.83
2023-04-30T05:21:43.734Z,2.20
2023-04-30T05:22:15.072Z,2.40
2023-04-30T05:22:46.467Z,3.15
2023-04-30T05:23:17.874Z,2.80
2023-04-30T05:23:49.214Z,2.58
2023-04-30T05:24:20.537Z,1.73
2023-04-30T05:24:51.878Z,1.90
2023-04-30T05:25:23.212Z,2.22
2023-04-30T05:25:54.579Z,2.30
2023-04-30T05:26:25.908Z,1.98
2023-04-30T05:26:57.271Z,1.50
2023-04-30T05:27:28.648Z,1.27
2023-04-30T05:27:59.995Z,1.90
2023-04-30T05:28:31.343Z,1.65
2023-04-30T05:29:02.712Z,1.20
2023-04-30T05:29:34.075Z,1.13
2023-04-30T05:30:05.726Z,1.60
2023-04-30T05:30:37.088Z,1.60
2023-04-30T05:31:08.423Z,1.52
2023-04-30T05:31:39.774Z,1.60
2023-04-30T05:32:11.143Z,1.35
2023-04-30T05:32:42.544Z,1.05
2023-04-30T05:33:14.116Z,1.38
2023-04-30T05:33:45.454Z,1.55
2023-04-30T05:34:16.821Z,1.30
2023-04-30T05:34:48.161Z,1.03
2023-04-30T05:35:19.666Z,1.63
2023-04-30T05:35:51.035Z,1.30
2023-04-30T05:36:22.389Z,1.20
2023-04-30T05:36:53.724Z,2.00
2023-04-30T05:37:25.074Z,1.20
2023-04-30T05:37:56.438Z,1.10
2023-04-30T05:38:27.760Z,0.93
2023-04-30T05:38:59.082Z,1.30
2023-04-30T05:39:30.445Z,1.08
2023-04-30T05:40:01.795Z,0.85
2023-04-30T05:40:33.156Z,1.08
2023-04-30T05:41:04.735Z,1.45
2023-04-30T05:41:36.097Z,1.02
2023-04-30T05:42:07.440Z,1.40
2023-04-30T05:42:38.897Z,0.73
2023-04-30T05:43:10.282Z,1.17
2023-04-30T05:43:41.638Z,0.95
2023-04-30T05:44:12.937Z,0.80
2023-04-30T05:44:44.281Z,1.10
2023-04-30T05:45:15.622Z,1.02
2023-04-30T05:45:47.030Z,1.30
2023-04-30T05:46:18.468Z,1.00
2023-04-30T05:46:49.839Z,0.88
2023-04-30T05:47:21.248Z,0.77
2023-04-30T05:47:52.731Z,1.00
2023-04-30T05:48:24.104Z,1.65
2023-04-30T05:48:55.448Z,1.00
2023-04-30T05:49:27.228Z,1.00
2023-04-30T05:49:58.608Z,0.82
2023-04-30T05:50:29.951Z,0.88
2023-04-30T05:51:01.301Z,0.80
2023-04-30T05:51:32.665Z,1.10
2023-04-30T05:52:04.115Z,0.70
2023-04-30T05:52:35.496Z,0.63
2023-04-30T05:53:06.836Z,1.10
2023-04-30T05:53:38.172Z,0.60
2023-04-30T05:54:09.530Z,0.75
2023-04-30T05:54:40.946Z,1.15
2023-04-30T05:55:12.426Z,0.28
2023-04-30T05:55:43.764Z,1.02
2023-04-30T05:56:15.128Z,1.17
2023-04-30T05:56:46.477Z,0.80
2023-04-30T05:57:17.837Z,1.30
2023-04-30T05:57:49.161Z,0.82
2023-04-30T05:58:20.497Z,1.25
2023-04-30T05:58:51.844Z,0.98
2023-04-30T05:59:23.486Z,0.40
2023-04-30T05:59:55.283Z,0.68
2023-04-30T06:00:26.819Z,0.65
2023-04-30T06:00:58.618Z,1.20
2023-04-30T06:01:29.975Z,0.65
2023-04-30T06:02:01.374Z,0.77
2023-04-30T06:02:32.895Z,1.10
2023-04-30T06:03:04.377Z,0.60
2023-04-30T06:03:35.757Z,0.73
2023-04-30T06:04:07.126Z,1.00
2023-04-30T06:04:38.543Z,0.75
2023-04-30T06:05:09.937Z,0.95
2023-04-30T06:05:41.547Z,0.80
2023-04-30T06:06:13.180Z,0.68
2023-04-30T06:06:44.691Z,0.75
2023-04-30T06:07:16.091Z,1.00
2023-04-30T06:07:47.425Z,0.35
2023-04-30T06:08:18.774Z,0.88
2023-04-30T06:08:50.120Z,0.70
2023-04-30T06:09:21.502Z,0.45
2023-04-30T06:09:53.167Z,0.40
2023-04-30T06:10:24.678Z,0.50
2023-04-30T06:10:56.352Z,0.70
2023-04-30T06:11:27.714Z,0.88
2023-04-30T06:11:59.109Z,0.60
2023-04-30T06:12:30.859Z,0.80
2023-04-30T06:13:02.237Z,0.75
2023-04-30T06:13:33.615Z,0.77
2023-04-30T06:14:05.005Z,0.75
2023-04-30T06:14:36.452Z,0.85
2023-04-30T06:15:08.021Z,0.50
2023-04-30T06:15:39.373Z,0.70
2023-04-30T06:16:10.769Z,0.70
2023-04-30T06:16:42.246Z,0.90
2023-04-30T06:17:13.609Z,0.50
2023-04-30T06:17:45.010Z,0.90
2023-04-30T06:18:16.837Z,0.60
2023-04-30T06:18:48.208Z,0.75
2023-04-30T06:19:19.556Z,0.75
2023-04-30T06:19:50.913Z,1.20
2023-04-30T06:20:22.287Z,0.60
2023-04-30T06:20:53.637Z,0.85
2023-04-30T06:21:25.021Z,1.10
2023-04-30T06:21:56.346Z,0.50
2023-04-30T06:22:27.955Z,0.60
2023-04-30T06:22:59.485Z,0.65
2023-04-30T06:23:30.943Z,0.80
2023-04-30T06:24:02.268Z,0.93
2023-04-30T06:24:33.579Z,1.02
2023-04-30T06:25:05.175Z,0.60
2023-04-30T06:25:36.512Z,1.02
2023-04-30T06:26:07.835Z,0.80
2023-04-30T06:26:39.208Z,0.68
2023-04-30T06:27:10.517Z,0.70
2023-04-30T06:27:41.861Z,0.38
2023-04-30T06:28:13.252Z,0.80
2023-04-30T06:28:44.605Z,0.30
2023-04-30T06:29:15.980Z,0.90
2023-04-30T06:29:47.314Z,0.75
2023-04-30T06:30:18.694Z,0.63
2023-04-30T06:30:50.635Z,0.65
2023-04-30T06:31:22.466Z,0.63
2023-04-30T06:31:53.980Z,0.43
2023-04-30T06:32:25.433Z,0.75
2023-04-30T06:32:56.812Z,0.40
2023-04-30T06:33:28.172Z,0.68
2023-04-30T06:33:59.522Z,0.77
2023-04-30T06:34:30.867Z,0.52
2023-04-30T06:35:02.244Z,0.60
2023-04-30T06:35:33.603Z,0.65
2023-04-30T06:36:05.175Z,0.70
2023-04-30T06:36:36.509Z,0.80
2023-04-30T06:37:07.858Z,1.80
2023-04-30T06:37:39.215Z,0.63
2023-04-30T06:38:10.570Z,0.65
2023-04-30T06:38:42.067Z,0.98
2023-04-30T06:39:16.589Z,0.77
2023-04-30T06:39:47.922Z,0.60
2023-04-30T06:40:19.313Z,0.50
2023-04-30T06:40:50.688Z,0.80
2023-04-30T06:41:22.047Z,0.75
2023-04-30T06:41:53.386Z,1.00
2023-04-30T06:42:24.733Z,1.15
2023-04-30T06:42:56.062Z,0.45
2023-04-30T06:43:27.428Z,1.05
2023-04-30T06:43:58.770Z,0.60
2023-04-30T06:44:30.131Z,0.50
2023-04-30T06:45:01.957Z,0.80
2023-04-30T06:45:33.297Z,0.30
2023-04-30T06:46:04.721Z,0.50
2023-04-30T06:46:36.191Z,0.60
2023-04-30T06:47:07.671Z,0.40
2023-04-30T06:47:39.072Z,0.70
2023-04-30T06:48:10.449Z,0.50
2023-04-30T06:48:41.878Z,0.75
2023-04-30T06:49:13.233Z,0.80
2023-04-30T06:49:44.580Z,0.70
2023-04-30T06:50:15.924Z,0.50
2023-04-30T06:50:47.330Z,0.93
2023-04-30T06:51:18.687Z,0.47
2023-04-30T06:51:50.036Z,0.75
2023-04-30T06:52:21.357Z,0.55
2023-04-30T06:52:52.866Z,0.63
2023-04-30T06:53:24.245Z,0.40
2023-04-30T06:53:55.570Z,0.52
2023-04-30T06:54:26.910Z,0.60
2023-04-30T06:54:58.234Z,0.40
2023-04-30T06:55:29.564Z,0.45
2023-04-30T06:56:00.968Z,1.25
2023-04-30T06:56:32.292Z,0.37
2023-04-30T06:57:03.678Z,0.70
2023-04-30T06:57:35.023Z,0.82
2023-04-30T06:58:06.688Z,0.32
2023-04-30T06:58:38.024Z,0.52
2023-04-30T06:59:09.369Z,0.60
2023-04-30T06:59:40.690Z,0.50
2023-04-30T07:00:12.534Z,0.47
2023-04-30T07:00:43.943Z,0.47
2023-04-30T07:01:15.334Z,0.50
2023-04-30T07:01:46.828Z,0.57
2023-04-30T07:02:19.966Z,0.95
2023-04-30T07:02:53.263Z,0.32
2023-04-30T07:03:24.835Z,0.60
2023-04-30T07:03:56.282Z,0.80
2023-04-30T07:04:27.717Z,0.50
2023-04-30T07:04:59.095Z,0.50
2023-04-30T07:05:30.929Z,0.50
2023-04-30T07:06:02.378Z,0.50
2023-04-30T07:06:33.812Z,0.70
2023-04-30T07:07:05.200Z,1.15
2023-04-30T07:07:36.525Z,0.50
2023-04-30T07:08:07.925Z,0.45
2023-04-30T07:08:39.324Z,0.67